Time;durP1;ratioP1;P1;durP2;ratioP2;P2;SDS_P1;SDS_P2;PMS_P1;PMS_P2;Temp;Humidity;BMP_temperature;BMP_pressure;BME280_temperature;BME280_humidity;BME280_pressure;Samples;Min_cycle;Max_cycle;Signal;HPM_P1;HPM_P2
2023/04/18 00:01:15;;;;;;;13.35;10.50;;;;;;;;;;4849777;29;20090;-95
2023/04/18 00:03:41;;;;;;;37.67;13.45;;;;;;;;;;4879888;29;20048;-90
2023/04/18 00:06:07;;;;;;;19.13;12.25;;;;;;;;;;4895100;29;20410;-94
2023/04/18 00:08:33;;;;;;;18.33;10.38;;;;;;;;;;4879192;29;20049;-94
2023/04/18 00:10:59;;;;;;;17.00;10.13;;;;;;;;;;4864358;29;20056;-92
2023/04/18 00:13:27;;;;;;;16.50;11.13;;;;;;;;;;4879588;29;20041;-93
2023/04/18 00:15:53;;;;;;;17.55;10.00;;;;;;;;;;4864317;29;20490;-90
2023/04/18 00:18:20;;;;;;;19.02;10.93;;;;;;;;;;4879797;29;20460;-94
2023/04/18 00:20:46;;;;;;;17.90;10.10;;;;;;;;;;4879548;29;20049;-92
2023/04/18 00:23:15;;;;;;;12.65;9.93;;;;;;;;;;4848492;29;20049;-92
2023/04/18 00:25:41;;;;;;;17.95;9.52;;;;;;;;;;4863272;29;20080;-94
2023/04/18 00:28:08;;;;;;;14.93;9.85;;;;;;;;;;4863960;29;20118;-94
2023/04/18 00:30:34;;;;;;;14.85;10.45;;;;;;;;;;4879078;29;20053;-91
2023/04/18 00:33:01;;;;;;;16.55;10.73;;;;;;;;;;4864219;29;20485;-92
2023/04/18 00:35:30;;;;;;;15.05;9.55;;;;;;;;;;4879176;29;20060;-91
2023/04/18 00:37:57;;;;;;;12.88;9.35;;;;;;;;;;4894694;29;20053;-92
2023/04/18 00:40:23;;;;;;;12.98;10.00;;;;;;;;;;4878845;29;20064;-93
2023/04/18 00:42:49;;;;;;;23.30;10.73;;;;;;;;;;4879176;29;20045;-91
2023/04/18 00:45:15;;;;;;;16.98;9.57;;;;;;;;;;4879100;29;20045;-92
2023/04/18 00:47:41;;;;;;;16.23;10.07;;;;;;;;;;4878639;29;20053;-90
2023/04/18 00:50:09;;;;;;;15.13;10.40;;;;;;;;;;4878790;29;20045;-92
2023/04/18 00:52:35;;;;;;;14.07;9.93;;;;;;;;;;4863385;29;20057;-93
2023/04/18 00:55:06;;;;;;;18.48;10.05;;;;;;;;;;4878603;29;20091;-94
2023/04/18 00:57:32;;;;;;;15.30;8.70;;;;;;;;;;4879270;29;20080;-92
2023/04/18 01:00:07;;;;;;;11.95;8.60;;;;;;;;;;4878746;29;20049;-94
2023/04/18 01:02:34;;;;;;;10.68;8.57;;;;;;;;;;4878764;29;20410;-91
2023/04/18 01:05:04;;;;;;;12.38;9.23;;;;;;;;;;4878648;29;20136;-94
2023/04/18 01:07:33;;;;;;;14.07;9.57;;;;;;;;;;4878066;29;20053;-90
2023/04/18 01:09:59;;;;;;;11.82;8.38;;;;;;;;;;4878090;29;20045;-91
2023/04/18 01:12:25;;;;;;;12.25;8.25;;;;;;;;;;4878253;29;20105;-91
2023/04/18 01:14:52;;;;;;;12.07;8.55;;;;;;;;;;4877903;29;20144;-92
2023/04/18 01:17:18;;;;;;;13.27;8.65;;;;;;;;;;4878384;29;20143;-91
2023/04/18 01:19:47;;;;;;;12.00;7.63;;;;;;;;;;4877436;29;20041;-92
2023/04/18 01:22:14;;;;;;;14.57;7.90;;;;;;;;;;4894092;29;20064;-92
2023/04/18 01:24:41;;;;;;;11.45;8.15;;;;;;;;;;4863471;29;20135;-94
2023/04/18 01:27:07;;;;;;;12.60;8.68;;;;;;;;;;4878502;29;20056;-93
2023/04/18 01:29:33;;;;;;;10.45;7.05;;;;;;;;;;4894249;29;20430;-92
2023/04/18 01:32:01;;;;;;;13.73;8.68;;;;;;;;;;4894241;29;20132;-91
2023/04/18 01:34:27;;;;;;;10.63;7.20;;;;;;;;;;4893956;29;20048;-92
2023/04/18 01:36:53;;;;;;;11.40;8.13;;;;;;;;;;4894066;29;20140;-92
2023/04/18 01:39:20;;;;;;;13.50;8.32;;;;;;;;;;4877994;29;20053;-93
2023/04/18 01:41:46;;;;;;;16.85;8.02;;;;;;;;;;4878441;29;20049;-92
2023/04/18 01:44:13;;;;;;;12.25;7.43;;;;;;;;;;4878553;29;20053;-93
2023/04/18 01:46:39;;;;;;;10.20;8.00;;;;;;;;;;4877986;29;20053;-94
2023/04/18 01:49:06;;;;;;;11.00;6.88;;;;;;;;;;4878688;29;20084;-90
2023/04/18 01:51:35;;;;;;;9.75;7.38;;;;;;;;;;4877373;29;20055;-91
2023/04/18 01:54:04;;;;;;;12.65;7.63;;;;;;;;;;4893223;29;20052;-90
2023/04/18 01:56:30;;;;;;;13.27;7.07;;;;;;;;;;4877510;29;20055;-91
2023/04/18 01:58:56;;;;;;;18.85;8.13;;;;;;;;;;4892915;29;20510;-91
2023/04/18 02:01:22;;;;;;;9.25;7.15;;;;;;;;;;4877477;29;20041;-91
2023/04/18 02:03:48;;;;;;;10.13;7.72;;;;;;;;;;4877629;29;20044;-90
2023/04/18 02:06:14;;;;;;;12.45;6.95;;;;;;;;;;4877429;29;20622;-93
2023/04/18 02:08:40;;;;;;;9.32;6.13;;;;;;;;;;4876959;29;20136;-91
2023/04/18 02:11:06;;;;;;;11.38;7.05;;;;;;;;;;4877073;29;20057;-90
2023/04/18 02:13:32;;;;;;;9.77;6.38;;;;;;;;;;4861482;29;20053;-90
2023/04/18 02:15:58;;;;;;;11.50;6.45;;;;;;;;;;4877074;29;20068;-90
2023/04/18 02:18:25;;;;;;;8.60;5.95;;;;;;;;;;4877417;29;20403;-92
2023/04/18 02:20:51;;;;;;;8.55;6.13;;;;;;;;;;4877809;29;20064;-90
2023/04/18 02:23:18;;;;;;;12.20;6.22;;;;;;;;;;4877686;29;20041;-91
2023/04/18 02:25:44;;;;;;;9.20;5.88;;;;;;;;;;4878146;29;20105;-93
2023/04/18 02:28:10;;;;;;;10.60;6.75;;;;;;;;;;4877792;29;20056;-92
2023/04/18 02:30:36;;;;;;;8.48;6.20;;;;;;;;;;4863791;29;20578;-92
2023/04/18 02:33:02;;;;;;;6.72;5.47;;;;;;;;;;4881877;29;20060;-94
2023/04/18 02:35:28;;;;;;;7.07;5.85;;;;;;;;;;4881431;29;20113;-91
2023/04/18 02:37:54;;;;;;;10.52;6.32;;;;;;;;;;4897285;29;20037;-93
2023/04/18 02:40:21;;;;;;;9.40;6.43;;;;;;;;;;4881017;29;20053;-94
2023/04/18 02:42:47;;;;;;;7.70;5.53;;;;;;;;;;4880869;29;20585;-90
2023/04/18 02:45:13;;;;;;;9.07;5.57;;;;;;;;;;4881234;29;20105;-91
2023/04/18 02:47:39;;;;;;;8.00;5.97;;;;;;;;;;4896614;29;20113;-91
2023/04/18 02:50:05;;;;;;;6.97;5.63;;;;;;;;;;4896431;29;20065;-92
2023/04/18 02:52:34;;;;;;;9.98;6.00;;;;;;;;;;4880395;29;20084;-91
2023/04/18 02:55:00;;;;;;;10.48;7.53;;;;;;;;;;4880570;29;20049;-92
2023/04/18 02:57:26;;;;;;;10.50;6.20;;;;;;;;;;4865397;29;20084;-91
2023/04/18 02:59:52;;;;;;;10.05;6.22;;;;;;;;;;4880541;29;20056;-94
2023/04/18 03:02:19;;;;;;;7.22;5.65;;;;;;;;;;4880376;29;20494;-93
2023/04/18 03:04:46;;;;;;;9.20;6.32;;;;;;;;;;4880975;29;20053;-92
2023/04/18 03:07:12;;;;;;;8.45;5.97;;;;;;;;;;4880566;29;20044;-94
2023/04/18 03:09:38;;;;;;;8.60;6.88;;;;;;;;;;4881372;29;20053;-94
2023/04/18 03:12:04;;;;;;;12.20;6.38;;;;;;;;;;4883934;29;20045;-95
2023/04/18 03:14:30;;;;;;;8.02;5.78;;;;;;;;;;4883472;29;20536;-96
2023/04/18 03:16:56;;;;;;;8.95;6.85;;;;;;;;;;4884302;29;20049;-96
2023/04/18 03:19:22;;;;;;;7.47;5.82;;;;;;;;;;4883285;29;20059;-95
2023/04/18 03:21:48;;;;;;;10.05;6.85;;;;;;;;;;4880949;29;20045;-94
2023/04/18 03:24:14;;;;;;;10.00;6.65;;;;;;;;;;4880535;29;20049;-95
2023/04/18 03:26:40;;;;;;;10.70;5.65;;;;;;;;;;4880521;29;20076;-93
2023/04/18 03:29:06;;;;;;;8.13;6.20;;;;;;;;;;4880717;29;20049;-93
2023/04/18 03:31:32;;;;;;;9.48;5.70;;;;;;;;;;4880710;29;20045;-95
2023/04/18 03:33:58;;;;;;;9.00;5.80;;;;;;;;;;4881133;29;20135;-95
2023/04/18 03:36:27;;;;;;;10.57;6.10;;;;;;;;;;4880579;29;20125;-95
2023/04/18 03:38:54;;;;;;;9.18;6.20;;;;;;;;;;4880501;29;20084;-94
2023/04/18 03:41:20;;;;;;;9.23;6.25;;;;;;;;;;4895584;29;20049;-96
2023/04/18 03:43:46;;;;;;;7.53;5.45;;;;;;;;;;4880274;29;20053;-93
2023/04/18 03:46:12;;;;;;;8.18;6.05;;;;;;;;;;4880498;29;20131;-96
2023/04/18 03:48:38;;;;;;;10.20;5.78;;;;;;;;;;4880958;29;20067;-96
2023/04/18 03:51:05;;;;;;;7.40;5.57;;;;;;;;;;4881053;29;20107;-93
2023/04/18 03:53:31;;;;;;;11.60;6.10;;;;;;;;;;4880449;29;20150;-96
2023/04/18 03:55:57;;;;;;;9.85;6.35;;;;;;;;;;4880385;29;20085;-95
2023/04/18 03:58:23;;;;;;;7.10;5.47;;;;;;;;;;4864471;29;20051;-96
2023/04/18 04:00:52;;;;;;;11.10;5.18;;;;;;;;;;4880625;29;20056;-91
2023/04/18 04:03:19;;;;;;;9.57;5.97;;;;;;;;;;4880021;29;20045;-92
2023/04/18 04:05:45;;;;;;;8.77;6.10;;;;;;;;;;4879873;29;20101;-93
2023/04/18 04:08:11;;;;;;;7.72;5.85;;;;;;;;;;4880263;29;20112;-96
2023/04/18 04:10:37;;;;;;;8.20;5.55;;;;;;;;;;4879767;29;20147;-96
2023/04/18 04:13:03;;;;;;;9.43;5.60;;;;;;;;;;4864066;29;20052;-94
2023/04/18 04:15:29;;;;;;;8.45;5.38;;;;;;;;;;4863703;29;20057;-95
2023/04/18 04:17:55;;;;;;;8.70;5.93;;;;;;;;;;4880314;29;20076;-93
2023/04/18 04:20:23;;;;;;;10.23;6.30;;;;;;;;;;4880076;29;20044;-94
2023/04/18 04:22:54;;;;;;;7.57;5.45;;;;;;;;;;4880223;29;20105;-94
2023/04/18 04:25:22;;;;;;;7.05;5.45;;;;;;;;;;4879503;29;20047;-93
2023/04/18 04:27:52;;;;;;;7.00;5.50;;;;;;;;;;4879699;29;20080;-94
2023/04/18 04:30:18;;;;;;;9.13;6.63;;;;;;;;;;4863585;29;20095;-95
2023/04/18 04:32:44;;;;;;;7.28;5.45;;;;;;;;;;4879511;29;20049;-92
2023/04/18 04:35:10;;;;;;;9.70;6.50;;;;;;;;;;4863886;29;20380;-94
2023/04/18 04:37:37;;;;;;;8.98;6.53;;;;;;;;;;4977750;23;20052;-94
2023/04/18 04:40:04;;;;;;;7.97;5.47;;;;;;;;;;4897914;23;20514;-94
2023/04/18 04:42:32;;;;;;;9.70;7.00;;;;;;;;;;4986110;23;20068;-93
2023/04/18 04:45:07;;;;;;;14.48;7.22;;;;;;;;;;4899987;23;20142;-94
2023/04/18 04:47:33;;;;;;;10.70;6.63;;;;;;;;;;4989233;23;20079;-93
2023/04/18 04:50:00;;;;;;;11.88;7.05;;;;;;;;;;4883885;29;20052;-93
2023/04/18 05:19:35;;;;;;;10.45;7.05;;;;;;;;;;5214746;23;19923;-95
2023/04/18 05:22:01;;;;;;;11.48;7.88;;;;;;;;;;4882316;29;20108;-95
2023/04/18 05:24:28;;;;;;;15.02;7.68;;;;;;;;;;4883240;29;20051;-96
2023/04/18 05:26:55;;;;;;;14.00;7.50;;;;;;;;;;4882890;29;20052;-95
2023/04/18 05:29:21;;;;;;;10.00;8.10;;;;;;;;;;4867794;29;20456;-94
2023/04/18 05:31:47;;;;;;;10.13;6.85;;;;;;;;;;4867220;29;20520;-95
2023/04/18 05:34:14;;;;;;;11.02;8.10;;;;;;;;;;4882934;29;20059;-95
2023/04/18 05:36:40;;;;;;;12.32;8.32;;;;;;;;;;4882682;29;20524;-95
2023/04/18 05:39:06;;;;;;;10.18;7.20;;;;;;;;;;4882232;29;20080;-93
2023/04/18 05:41:33;;;;;;;11.13;8.30;;;;;;;;;;4881417;29;20052;-95
2023/04/18 05:43:59;;;;;;;12.63;7.80;;;;;;;;;;4881885;29;20049;-95
2023/04/18 05:46:25;;;;;;;12.35;8.40;;;;;;;;;;4866124;29;20055;-95
2023/04/18 05:48:51;;;;;;;21.88;8.57;;;;;;;;;;4866536;29;20052;-92
2023/04/18 05:51:17;;;;;;;12.48;8.70;;;;;;;;;;4882134;29;20174;-96
2023/04/18 05:53:43;;;;;;;13.00;8.90;;;;;;;;;;4866119;29;20135;-95
2023/04/18 05:56:09;;;;;;;12.60;8.25;;;;;;;;;;4881795;29;20395;-95
2023/04/18 05:58:35;;;;;;;11.57;8.52;;;;;;;;;;4896996;29;20045;-95
2023/04/18 06:01:01;;;;;;;18.23;8.15;;;;;;;;;;4881469;29;20053;-96
2023/04/18 06:03:28;;;;;;;12.13;7.82;;;;;;;;;;4896919;29;20036;-95
2023/04/18 06:05:54;;;;;;;13.98;9.43;;;;;;;;;;4883949;29;20048;-93
2023/04/18 06:08:20;;;;;;;10.82;8.13;;;;;;;;;;4901804;29;20056;-93
2023/04/18 06:10:46;;;;;;;16.08;8.88;;;;;;;;;;4901727;29;20409;-94
2023/04/18 06:13:12;;;;;;;17.67;9.75;;;;;;;;;;4886548;29;20131;-93
2023/04/18 06:15:38;;;;;;;11.30;8.80;;;;;;;;;;4886309;29;20048;-94
2023/04/18 06:18:04;;;;;;;12.18;8.50;;;;;;;;;;4870459;29;20048;-94
2023/04/18 06:20:30;;;;;;;12.25;8.35;;;;;;;;;;4885391;29;20067;-93
2023/04/18 06:22:56;;;;;;;11.25;8.05;;;;;;;;;;4900454;29;20052;-92
2023/04/18 06:25:23;;;;;;;16.13;8.65;;;;;;;;;;4900372;29;20056;-91
2023/04/18 06:27:49;;;;;;;11.70;8.18;;;;;;;;;;4900632;29;20099;-93
2023/04/18 06:30:16;;;;;;;13.75;7.80;;;;;;;;;;4884879;29;20526;-92
2023/04/18 06:32:42;;;;;;;10.02;7.45;;;;;;;;;;4901160;29;20078;-94
2023/04/18 06:35:08;;;;;;;11.68;7.75;;;;;;;;;;4901404;29;20062;-93
2023/04/18 06:37:34;;;;;;;13.63;7.72;;;;;;;;;;4900387;29;20092;-92
2023/04/18 06:40:00;;;;;;;11.40;6.95;;;;;;;;;;4900728;29;20084;-92
2023/04/18 06:42:26;;;;;;;9.82;6.30;;;;;;;;;;4885024;29;20054;-93
2023/04/18 06:44:53;;;;;;;12.23;7.90;;;;;;;;;;4885149;29;20485;-92
2023/04/18 06:47:19;;;;;;;9.82;7.15;;;;;;;;;;4885177;29;20053;-92
2023/04/18 06:49:45;;;;;;;8.55;6.68;;;;;;;;;;4900883;29;20049;-92
2023/04/18 06:52:11;;;;;;;9.75;7.57;;;;;;;;;;4901101;29;20419;-93
2023/04/18 06:54:40;;;;;;;12.48;7.88;;;;;;;;;;4900596;29;20059;-91
2023/04/18 06:57:06;;;;;;;12.48;7.35;;;;;;;;;;4916453;29;20059;-94
2023/04/18 06:59:34;;;;;;;9.52;7.05;;;;;;;;;;4900446;29;20404;-93
2023/04/18 07:02:00;;;;;;;11.85;7.00;;;;;;;;;;4869761;29;20048;-93
2023/04/18 07:04:26;;;;;;;9.80;6.47;;;;;;;;;;4900514;29;20131;-94
2023/04/18 07:06:52;;;;;;;9.38;6.55;;;;;;;;;;4901344;29;20084;-95
2023/04/18 07:09:19;;;;;;;11.85;8.13;;;;;;;;;;4885041;29;20080;-94
2023/04/18 07:11:45;;;;;;;14.65;7.85;;;;;;;;;;4900669;29;20068;-92
2023/04/18 07:14:11;;;;;;;19.15;9.20;;;;;;;;;;4900735;29;20044;-94
2023/04/18 07:16:37;;;;;;;11.60;7.18;;;;;;;;;;4916761;29;20051;-93
2023/04/18 07:19:04;;;;;;;13.77;8.15;;;;;;;;;;4916482;29;20052;-95
2023/04/18 07:21:30;;;;;;;12.18;8.18;;;;;;;;;;4900599;29;20139;-95
2023/04/18 07:23:56;;;;;;;11.40;7.75;;;;;;;;;;4869697;29;20436;-94
2023/04/18 07:26:22;;;;;;;11.07;7.80;;;;;;;;;;4884620;29;20109;-94
2023/04/18 07:28:49;;;;;;;16.02;8.65;;;;;;;;;;4916237;29;20056;-95
2023/04/18 07:31:15;;;;;;;14.90;8.75;;;;;;;;;;4890380;23;20090;-95
2023/04/18 07:33:42;;;;;;;11.40;8.15;;;;;;;;;;4866551;29;20399;-92
2023/04/18 07:36:08;;;;;;;11.95;8.07;;;;;;;;;;4866542;29;20053;-92
2023/04/18 07:38:34;;;;;;;10.00;7.72;;;;;;;;;;4866703;29;20375;-94
2023/04/18 07:41:02;;;;;;;12.70;8.43;;;;;;;;;;4865872;29;20052;-92
2023/04/18 07:43:28;;;;;;;13.75;8.80;;;;;;;;;;4866547;29;20041;-94
2023/04/18 07:45:54;;;;;;;11.30;8.27;;;;;;;;;;4866060;29;20138;-94
2023/04/18 07:48:26;;;;;;;12.02;7.70;;;;;;;;;;4866452;29;20041;-96
2023/04/18 07:50:53;;;;;;;13.70;7.45;;;;;;;;;;4865909;29;20051;-95
2023/04/18 07:53:19;;;;;;;15.18;8.55;;;;;;;;;;4866128;29;20088;-95
2023/04/18 07:55:45;;;;;;;12.10;7.43;;;;;;;;;;4866217;29;20055;-95
2023/04/18 07:58:12;;;;;;;10.00;6.55;;;;;;;;;;4866208;29;20052;-95
2023/04/18 08:00:38;;;;;;;8.57;6.82;;;;;;;;;;4881213;29;20049;-94
2023/04/18 08:03:11;;;;;;;9.43;7.40;;;;;;;;;;4881289;29;20108;-94
2023/04/18 08:05:40;;;;;;;11.73;7.53;;;;;;;;;;4881115;29;20045;-95
2023/04/18 08:08:07;;;;;;;16.08;8.25;;;;;;;;;;4882132;29;20379;-95
2023/04/18 08:10:33;;;;;;;11.32;7.85;;;;;;;;;;4880954;29;20048;-95
2023/04/18 08:13:00;;;;;;;12.25;7.45;;;;;;;;;;4881399;29;20083;-94
2023/04/18 08:15:31;;;;;;;19.83;8.43;;;;;;;;;;4881901;29;20068;-94
2023/04/18 08:18:00;;;;;;;11.02;8.18;;;;;;;;;;4881184;29;20048;-96
2023/04/18 08:20:26;;;;;;;10.98;6.97;;;;;;;;;;4881092;29;20128;-95
2023/04/18 08:22:53;;;;;;;11.95;7.63;;;;;;;;;;4881488;29;20064;-95
2023/04/18 08:25:19;;;;;;;11.35;8.50;;;;;;;;;;4881467;29;20177;-94
2023/04/18 08:27:45;;;;;;;11.18;7.47;;;;;;;;;;4864932;29;20251;-92
2023/04/18 08:30:11;;;;;;;15.13;7.53;;;;;;;;;;4865877;29;20049;-94
2023/04/18 08:32:38;;;;;;;9.82;7.15;;;;;;;;;;4880602;29;20143;-96
2023/04/18 08:35:04;;;;;;;10.60;7.93;;;;;;;;;;4880748;29;20052;-95
2023/04/18 08:37:31;;;;;;;10.40;7.63;;;;;;;;;;4864904;29;20068;-94
2023/04/18 08:39:57;;;;;;;8.93;7.25;;;;;;;;;;4865056;29;20086;-94
2023/04/18 08:42:23;;;;;;;18.80;8.07;;;;;;;;;;4865045;29;20109;-94
2023/04/18 08:44:50;;;;;;;10.90;7.22;;;;;;;;;;4865515;29;20052;-94
2023/04/18 08:47:16;;;;;;;9.98;6.45;;;;;;;;;;4880638;29;20059;-94
2023/04/18 08:49:44;;;;;;;8.60;6.50;;;;;;;;;;4881291;29;20041;-93
2023/04/18 08:52:12;;;;;;;10.25;7.00;;;;;;;;;;4896176;29;20053;-93
2023/04/18 08:54:40;;;;;;;13.25;7.55;;;;;;;;;;4880428;29;20571;-95
2023/04/18 08:57:07;;;;;;;13.75;7.97;;;;;;;;;;4880247;29;20067;-93
2023/04/18 08:59:34;;;;;;;9.63;7.38;;;;;;;;;;4879149;29;20112;-94
2023/04/18 09:02:04;;;;;;;9.38;6.60;;;;;;;;;;4864378;29;20051;-93
2023/04/18 09:04:33;;;;;;;9.90;7.20;;;;;;;;;;4880060;29;20148;-95
2023/04/18 09:06:59;;;;;;;15.35;8.45;;;;;;;;;;4879395;29;20045;-94
2023/04/18 09:09:28;;;;;;;8.50;6.78;;;;;;;;;;4880064;29;20105;-94
2023/04/18 09:12:07;;;;;;;10.07;6.55;;;;;;;;;;4879943;29;20056;-92
2023/04/18 09:14:41;;;;;;;9.50;6.95;;;;;;;;;;4878931;29;20529;-93
2023/04/18 09:17:07;;;;;;;13.68;7.13;;;;;;;;;;4863497;29;20125;-94
2023/04/18 09:19:33;;;;;;;16.58;6.75;;;;;;;;;;4879482;29;20128;-94
2023/04/18 09:22:00;;;;;;;7.13;5.75;;;;;;;;;;4864057;29;20052;-96
2023/04/18 09:24:27;;;;;;;15.07;7.43;;;;;;;;;;4894386;29;20562;-93
2023/04/18 09:26:55;;;;;;;9.43;6.85;;;;;;;;;;4878610;29;20537;-92
2023/04/18 09:29:44;;;;;;;11.88;6.88;;;;;;;;;;4878935;29;20073;-92
2023/04/18 09:32:11;;;;;;;11.23;6.25;;;;;;;;;;4872543;29;20060;-91
2023/04/18 09:34:41;;;;;;;10.57;5.18;;;;;;;;;;4878798;29;20091;-93
2023/04/18 09:37:08;;;;;;;8.10;5.53;;;;;;;;;;4878880;29;20055;-94
2023/04/18 09:39:34;;;;;;;25.17;7.47;;;;;;;;;;4877727;29;20526;-93
2023/04/18 09:42:01;;;;;;;14.32;5.40;;;;;;;;;;4878827;29;20463;-92
2023/04/18 09:44:27;;;;;;;8.30;6.43;;;;;;;;;;4878495;29;20557;-92
2023/04/18 09:46:53;;;;;;;10.70;5.90;;;;;;;;;;4878451;29;20136;-94
2023/04/18 09:49:19;;;;;;;6.88;5.85;;;;;;;;;;4862856;29;20045;-90
2023/04/18 09:51:45;;;;;;;8.25;5.72;;;;;;;;;;4862918;29;20450;-95
2023/04/18 09:54:15;;;;;;;7.38;5.93;;;;;;;;;;4878755;29;20049;-95
2023/04/18 09:56:44;;;;;;;6.75;5.95;;;;;;;;;;4894366;29;20053;-93
2023/04/18 09:59:11;;;;;;;9.45;6.07;;;;;;;;;;4878795;29;20045;-95
2023/04/18 10:01:43;;;;;;;10.50;5.82;;;;;;;;;;4878400;29;20053;-92
2023/04/18 10:04:11;;;;;;;7.88;6.40;;;;;;;;;;4862926;29;20037;-91
2023/04/18 10:06:38;;;;;;;8.10;5.40;;;;;;;;;;4878133;29;20056;-94
2023/04/18 10:09:06;;;;;;;7.57;5.18;;;;;;;;;;4878265;29;20049;-95
2023/04/18 10:11:35;;;;;;;6.45;5.07;;;;;;;;;;4863662;29;20049;-95
2023/04/18 10:14:07;;;;;;;6.45;5.35;;;;;;;;;;4895021;29;20045;-94
2023/04/18 10:16:34;;;;;;;8.55;6.05;;;;;;;;;;4879153;29;20417;-96
2023/04/18 10:19:18;;;;;;;5.82;5.00;;;;;;;;;;4879177;29;20045;-96
2023/04/18 10:21:55;;;;;;;11.77;7.05;;;;;;;;;;4878674;29;20104;-94
2023/04/18 10:24:51;;;;;;;7.80;6.10;;;12.10;99.90;;;;;;4878833;29;20044;-91
2023/04/18 10:27:18;;;;;;;10.45;5.30;;;;;;;;;;4862447;29;20156;-92
2023/04/18 10:29:48;;;;;;;8.68;5.32;;;;;;;;;;4862882;29;20128;-95
2023/04/18 10:32:15;;;;;;;8.20;5.20;;;;;;;;;;4894847;29;20073;-95
2023/04/18 10:34:41;;;;;;;8.07;4.95;;;;;;;;;;4863632;29;20045;-96
2023/04/18 10:37:07;;;;;;;8.15;5.47;;;;;;;;;;4879337;29;20080;-94
2023/04/18 10:39:47;;;;;;;8.20;5.03;;;;;;;;;;4848249;29;20063;-95
2023/04/18 10:42:13;;;;;;;5.68;5.03;;;;;;;;;;4878495;29;20053;-95
2023/04/18 10:44:39;;;;;;;6.43;4.57;;;;;;;;;;4879068;29;20047;-96
2023/04/18 10:47:08;;;;;;;6.15;4.13;;;;;;;;;;4878228;29;20053;-94
2023/04/18 10:49:37;;;;;;;6.15;5.10;;;;;;;;;;4893663;29;20095;-92
2023/04/18 10:52:07;;;;;;;5.97;4.85;;;;;;;;;;4881471;29;20076;-95
2023/04/18 10:54:54;;;;;;;7.13;5.20;;;12.80;99.90;;;;;;4882999;29;20135;-96
2023/04/18 10:57:20;;;;;;;10.23;5.82;;;;;;;;;;4868307;29;20037;-94
2023/04/18 10:59:50;;;;;;;7.18;5.90;;;;;;;;;;4882023;29;20057;-95
2023/04/18 11:02:19;;;;;;;8.02;5.22;;;;;;;;;;4881791;29;20052;-95
2023/04/18 11:05:12;;;;;;;6.28;5.25;;;;;;;;;;4881912;29;20053;-95
2023/04/18 11:07:39;;;;;;;10.77;6.60;;;;;;;;;;4865952;29;20391;-92
2023/04/18 11:10:06;;;;;;;7.18;5.43;;;;;;;;;;4883055;29;20041;-96
2023/04/18 11:12:32;;;;;;;10.38;6.05;;;;;;;;;;4883892;29;20056;-92
2023/04/18 11:15:00;;;;;;;9.38;5.47;;;;;;;;;;4882279;29;20049;-94
2023/04/18 11:17:27;;;;;;;10.18;5.68;;;;;;;;;;4883465;29;20052;-93
2023/04/18 11:20:11;;;;;;;8.45;5.80;;;;;;;;;;4882019;29;20120;-93
2023/04/18 11:22:49;;;;;;;6.03;5.25;;;;;;;;;;4883001;29;20473;-93
2023/04/18 11:25:16;;;;;;;7.75;4.75;;;;;;;;;;4882491;29;20072;-95
2023/04/18 11:27:46;;;;;;;5.53;4.97;;;;;;;;;;4882620;29;20056;-95
2023/04/18 11:30:12;;;;;;;6.72;5.38;;;;;;;;;;4881716;29;20406;-94
2023/04/18 11:32:39;;;;;;;6.95;5.30;;;;;;;;;;4881114;29;20521;-91
2023/04/18 11:35:06;;;;;;;6.95;5.43;;;;;;;;;;4897039;29;20108;-94
2023/04/18 11:37:32;;;;;;;5.47;4.93;;;;;;;;;;4881378;29;20045;-91
2023/04/18 11:39:58;;;;;;;7.60;4.95;;;;;;;;;;4880660;29;20045;-91
2023/04/18 11:42:27;;;;;;;10.05;4.90;;;;;;;;;;4880814;29;20518;-92
2023/04/18 11:44:54;;;;;;;5.00;4.43;;;;;;;;;;4881228;29;20455;-93
2023/04/18 11:47:24;;;;;;;6.45;4.85;;;;;;;;;;4896647;29;20109;-91
2023/04/18 11:49:57;;;;;;;5.28;4.32;;;;;;;;;;4897068;29;20097;-91
2023/04/18 11:52:23;;;;;;;4.95;4.03;;;;;;;;;;4866268;29;20052;-94
2023/04/18 11:54:49;;;;;;;5.85;4.45;;;;;;;;;;4881490;29;20056;-90
2023/04/18 11:57:26;;;;;;;4.60;4.03;;;;;;;;;;4865214;29;20081;-91
2023/04/18 11:59:56;;;;;;;5.65;4.65;;;13.70;99.90;;;;;;4880179;29;20100;-91
2023/04/18 12:02:41;;;;;;;8.70;4.22;;;;;;;;;;4879663;29;20041;-92
2023/04/18 12:05:07;;;;;;;4.20;3.63;;;;;;;;;;4882055;29;20064;-90
2023/04/18 12:07:35;;;;;;;6.50;4.28;;;;;;;;;;4896345;29;20059;-90
2023/04/18 12:10:02;;;;;;;4.35;3.90;;;;;;;;;;4895428;29;20049;-91
2023/04/18 12:12:28;;;;;;;6.13;3.95;;;;;;;;;;4880760;29;20406;-94
2023/04/18 12:14:58;;;;;;;6.60;4.13;;;;;;;;;;4882230;29;20053;-95
2023/04/18 12:17:28;;;;;;;12.55;4.03;;;;;;;;;;4866715;29;20553;-93
2023/04/18 12:19:54;;;;;;;4.55;3.65;;;;;;;;;;4881151;29;20079;-95
2023/04/18 12:22:36;;;;;;;4.63;4.10;;;;;;;;;;4896935;29;20048;-92
2023/04/18 12:25:20;;;;;;;5.13;3.20;;;;;;;;;;4896121;29;20049;-91
2023/04/18 12:28:13;;;;;;;4.82;3.80;;;;;;;;;;4880758;29;20069;-91
2023/04/18 12:30:39;;;;;;;8.63;3.58;;;;;;;;;;4850622;29;20186;-92
2023/04/18 12:33:08;;;;;;;4.15;3.75;;;;;;;;;;4879903;29;20116;-91
2023/04/18 12:35:34;;;;;;;7.43;3.60;;;;;;;;;;4880220;29;20132;-91
2023/04/18 12:38:04;;;;;;;4.05;3.00;;;;;;;;;;4897254;29;20147;-93
2023/04/18 12:40:30;;;;;;;3.50;3.20;;;;;;;;;;4880328;29;20063;-94
2023/04/18 12:42:56;;;;;;;5.00;3.55;;;;;;;;;;4864841;29;20071;-93
2023/04/18 12:45:23;;;;;;;7.57;3.40;;;;;;;;;;4881046;29;20057;-91
2023/04/18 12:47:50;;;;;;;5.00;3.53;;;;;;;;;;4881555;29;20045;-92
2023/04/18 12:50:17;;;;;;;5.70;4.45;;;;;;;;;;4881957;29;20052;-91
2023/04/18 12:52:43;;;;;;;5.88;3.45;;;;;;;;;;4882692;29;20073;-95
2023/04/18 12:55:10;;;;;;;7.80;3.90;;;;;;;;;;4899219;29;20458;-94
2023/04/18 12:57:36;;;;;;;6.47;3.15;;;;;;;;;;4866566;29;20052;-93
2023/04/18 13:00:09;;;;;;;7.30;3.33;;;;;;;;;;4881277;29;20137;-94
2023/04/18 13:02:37;;;;;;;3.58;3.28;;;;;;;;;;4864754;29;20088;-91
2023/04/18 13:05:07;;;;;;;5.07;3.47;;;;;;;;;;4880516;29;20052;-93
2023/04/18 13:07:33;;;;;;;3.50;3.13;;;;;;;;;;4880439;29;20056;-93
2023/04/18 13:09:59;;;;;;;6.13;3.42;;;;;;;;;;4879718;29;20060;-93
2023/04/18 13:12:25;;;;;;;4.97;4.40;;;;;;;;;;4864129;29;20625;-91
2023/04/18 13:14:51;;;;;;;7.72;4.38;;;;;;;;;;4878948;29;20050;-92
2023/04/18 13:17:17;;;;;;;5.50;3.70;;;;;;;;;;4879094;29;20105;-91
2023/04/18 13:19:43;;;;;;;4.75;4.22;;;;;;;;;;4878603;29;20041;-93
2023/04/18 13:22:10;;;;;;;4.20;3.80;;;;;;;;;;4863274;29;20057;-94
2023/04/18 13:24:36;;;;;;;4.88;4.38;;;;;;;;;;4879327;29;20540;-92
2023/04/18 13:27:09;;;;;;;6.70;4.55;;;;;;;;;;4879432;29;20135;-94
2023/04/18 13:29:35;;;;;;;5.03;3.95;;;;;;;;;;4864532;29;20135;-93
2023/04/18 13:32:01;;;;;;;4.75;4.35;;;;;;;;;;4863834;29;20057;-92
2023/04/18 13:34:27;;;;;;;4.75;4.18;;;;;;;;;;4864184;29;20136;-91
2023/04/18 13:36:53;;;;;;;4.90;3.92;;;;;;;;;;4879982;29;20052;-91
2023/04/18 13:39:20;;;;;;;4.35;3.80;;;;;;;;;;4863511;29;20072;-92
2023/04/18 13:41:46;;;;;;;6.50;4.10;;;;;;;;;;4878557;29;20045;-91
2023/04/18 13:44:12;;;;;;;5.50;4.55;;;;;;;;;;4862998;29;20045;-91
2023/04/18 13:46:38;;;;;;;6.50;4.70;;;;;;;;;;4878206;29;20104;-90
2023/04/18 13:49:04;;;;;;;8.85;5.32;;;;;;;;;;4878183;29;20164;-91
2023/04/18 13:51:32;;;;;;;8.35;5.53;;;;;;;;;;4863258;29;20079;-93
2023/04/18 13:54:00;;;;;;;7.80;5.35;;;;;;;;;;4862594;29;20045;-92
2023/04/18 13:56:27;;;;;;;6.63;5.93;;;;;;;;;;4877932;29;20131;-92
2023/04/18 13:58:53;;;;;;;5.93;5.32;;;;;;;;;;4879258;29;20411;-91
2023/04/18 14:01:20;;;;;;;15.25;5.32;;;;;;;;;;4883964;29;20049;-95
2023/04/18 14:03:46;;;;;;;8.07;5.70;;;;;;;;;;4898663;29;20053;-96
2023/04/18 14:06:13;;;;;;;7.55;6.07;;;;;;;;;;4899901;29;20045;-96
2023/04/18 14:08:39;;;;;;;8.38;6.07;;;;;;;;;;4868464;29;20049;-96
2023/04/18 14:11:05;;;;;;;6.95;6.07;;;;;;;;;;4880512;29;20049;-96
2023/04/18 14:13:33;;;;;;;13.60;7.07;;;;;;;;;;4884112;29;20047;-93
2023/04/18 14:15:59;;;;;;;10.85;6.10;;;;;;;;;;4885088;29;20049;-92
2023/04/18 14:18:25;;;;;;;6.38;5.18;;;;;;;;;;4870335;29;20056;-93
2023/04/18 14:20:52;;;;;;;8.25;6.50;;;;;;;;;;4873565;29;20049;-91
2023/04/18 14:23:18;;;;;;;12.52;6.60;;;;;;;;;;4871865;29;20041;-93
2023/04/18 14:25:44;;;;;;;8.57;6.57;;;;;;;;;;4872612;29;20458;-95
2023/04/18 14:28:11;;;;;;;11.63;7.15;;;;;;;;;;4872809;29;20053;-95
2023/04/18 14:30:37;;;;;;;10.45;7.82;;;;;;;;;;4890979;29;20045;-96
2023/04/18 14:33:04;;;;;;;12.93;7.93;;;;;;;;;;4888811;29;20095;-96
2023/04/18 14:35:30;;;;;;;11.57;7.35;;;;;;;;;;4865724;29;20486;-93
2023/04/18 14:37:56;;;;;;;10.98;7.68;;;;;;;;;;4881791;29;20143;-93
2023/04/18 14:40:23;;;;;;;9.93;6.95;;;;;;;;;;4881544;29;20053;-92
2023/04/18 14:42:49;;;;;;;11.60;8.52;;;;;;;;;;4866240;29;20049;-91
2023/04/18 14:45:15;;;;;;;9.05;7.50;;;;;;;;;;4881666;29;20033;-91
2023/04/18 14:47:44;;;;;;;10.88;7.93;;;;;;;;;;4881107;29;20060;-90
2023/04/18 14:50:11;;;;;;;9.63;7.38;;;;;;;;;;4896672;29;20091;-93
2023/04/18 14:52:37;;;;;;;10.95;8.13;;;;;;;;;;4881258;29;20060;-93
2023/04/18 14:55:04;;;;;;;9.13;7.80;;;;;;;;;;4865769;29;20041;-93
2023/04/18 14:57:30;;;;;;;11.88;8.00;;;;;;;;;;4881046;29;20140;-92
2023/04/18 14:59:56;;;;;;;11.23;7.82;;;;;;;;;;4865564;29;20095;-91
2023/04/18 15:02:22;;;;;;;8.65;7.75;;;;;;;;;;4881693;29;20052;-91
2023/04/18 15:04:49;;;;;;;9.88;7.30;;;;;;;;;;4881290;29;20132;-92